East Olympia, Washington
Current Conditions -  °F | °C
As of 3:54 PM on Wednesday 26 Nov 2014 (Local Time) from KOLM Reporting Station
Overcast Overcast  
Wind Chill: 58°   Ceiling: 3800
Heat Index: 58°   Visibility: 10mi
Dew Point: 52°   Wind: 10mph
Humidity: 81%   Direction: 200°SSW
Pressure: 30.01"   Gusts: NA
Location:  46.97°N, 122.84°W
Report Text: KOLM 262354Z 20009KT 10SM OVC038 14/11 A3001 RMK AO2 SLP162 T01440111 10144 20128 58023
Loading
Personal Weather Stations






























Interactive Weather Map New forecast layout! Learn more

10-Day Weather Forecast

Advertisements
Track Severe Weather on mobile